createdAt,value
2018-12-07T06:21:28.603Z,947.06
2018-12-07T06:22:39.764Z,947.15
2018-12-07T06:23:39.853Z,947.13
2018-12-07T06:24:29.612Z,947.12
2018-12-07T06:25:29.121Z,947.17
2018-12-07T06:26:28.173Z,947.22
2018-12-07T06:27:28.198Z,947.15
2018-12-07T06:28:28.280Z,947.19
2018-12-07T06:29:28.105Z,947.16
2018-12-07T06:30:28.587Z,947.18
2018-12-07T06:31:28.092Z,947.16
2018-12-07T06:32:28.044Z,947.17
2018-12-07T06:33:28.594Z,947.16
2018-12-07T06:34:28.026Z,947.10
2018-12-07T06:35:28.046Z,947.10
2018-12-07T06:36:28.008Z,947.04
2018-12-07T06:37:27.993Z,947.14
2018-12-07T06:38:27.978Z,947.10
2018-12-07T06:39:27.970Z,947.17
2018-12-07T06:40:27.979Z,947.15
2018-12-07T06:41:28.970Z,947.08
2018-12-07T06:42:27.928Z,947.09
2018-12-07T06:43:27.926Z,947.10
2018-12-07T06:44:27.907Z,947.05
2018-12-07T06:45:27.896Z,947.07
2018-12-07T06:46:29.630Z,947.10
2018-12-07T06:47:29.089Z,947.09
2018-12-07T06:48:27.867Z,947.04
2018-12-07T06:49:27.860Z,947.09
2018-12-07T06:50:27.843Z,947.07
2018-12-07T06:51:27.828Z,947.13
2018-12-07T06:52:27.831Z,947.10
2018-12-07T06:53:27.837Z,947.13
2018-12-07T06:54:27.799Z,947.06
2018-12-07T06:55:27.783Z,947.10
2018-12-07T06:56:27.782Z,947.15
2018-12-07T06:57:27.872Z,947.12
2018-12-07T06:58:27.753Z,947.08
2018-12-07T06:59:27.780Z,947.03
2018-12-07T07:00:27.728Z,947.00
2018-12-07T07:01:27.722Z,947.03
2018-12-07T07:02:27.729Z,946.99
2018-12-07T07:03:27.704Z,947.01
2018-12-07T07:04:28.735Z,947.04
2018-12-07T07:05:29.585Z,946.99
2018-12-07T07:06:27.687Z,946.98
2018-12-07T07:07:27.647Z,947.01
2018-12-07T07:08:27.652Z,946.96
2018-12-07T07:09:27.621Z,946.94
2018-12-07T07:10:27.615Z,946.93
2018-12-07T07:11:27.602Z,946.94
2018-12-07T07:12:29.174Z,946.94
2018-12-07T07:13:27.619Z,946.97
2018-12-07T07:14:27.575Z,946.95
2018-12-07T07:15:27.561Z,946.92
2018-12-07T07:16:27.554Z,946.93
2018-12-07T07:17:27.539Z,946.88
2018-12-07T07:18:27.555Z,946.86
2018-12-07T07:19:27.533Z,946.92
2018-12-07T07:20:27.504Z,947.00
2018-12-07T07:21:28.088Z,946.98
2018-12-07T07:22:27.484Z,946.90
2018-12-07T07:23:28.090Z,947.00
2018-12-07T07:24:27.519Z,946.96
2018-12-07T07:25:27.450Z,946.95
2018-12-07T07:26:27.436Z,946.97
2018-12-07T07:27:27.423Z,946.99
2018-12-07T07:28:27.416Z,946.87
2018-12-07T07:29:27.409Z,946.96
2018-12-07T07:30:28.183Z,946.92
2018-12-07T07:31:28.373Z,946.99
2018-12-07T07:32:27.379Z,946.93
2018-12-07T07:33:27.376Z,946.91
2018-12-07T07:34:27.341Z,946.92
2018-12-07T07:35:27.327Z,946.88
2018-12-07T07:36:27.635Z,946.89
2018-12-07T07:37:27.311Z,946.84
2018-12-07T07:38:27.302Z,946.87
2018-12-07T07:39:27.282Z,946.83
2018-12-07T07:40:27.285Z,946.81
2018-12-07T07:41:30.129Z,946.82
2018-12-07T07:42:27.252Z,946.74
2018-12-07T07:43:27.249Z,946.80
2018-12-07T07:44:27.233Z,946.81
2018-12-07T07:45:27.244Z,946.82
2018-12-07T07:46:27.252Z,946.83
2018-12-07T07:47:27.221Z,946.82
2018-12-07T07:48:27.183Z,946.79
2018-12-07T07:49:27.169Z,946.79
2018-12-07T07:50:27.161Z,946.75
2018-12-07T07:51:27.157Z,946.85
2018-12-07T07:52:27.169Z,946.78
2018-12-07T07:53:27.143Z,946.74
2018-12-07T07:54:28.046Z,946.72
2018-12-07T07:55:27.119Z,946.75
2018-12-07T07:56:27.094Z,946.67
2018-12-07T07:57:27.103Z,946.71
2018-12-07T07:58:27.080Z,946.65
2018-12-07T07:59:27.060Z,946.72
2018-12-07T08:00:27.086Z,946.74
2018-12-07T08:01:27.037Z,946.68
2018-12-07T08:02:27.025Z,946.69
2018-12-07T08:03:27.589Z,946.66
2018-12-07T08:04:27.612Z,946.64
2018-12-07T08:05:27.033Z,946.58
2018-12-07T08:06:26.979Z,946.57
2018-12-07T08:07:26.970Z,946.60
2018-12-07T08:08:26.965Z,946.53
2018-12-07T08:09:26.951Z,946.57
2018-12-07T08:10:26.942Z,946.53
2018-12-07T08:11:27.616Z,946.46
2018-12-07T08:12:26.921Z,946.52
2018-12-07T08:13:26.938Z,946.49
2018-12-07T08:14:26.895Z,946.55
2018-12-07T08:15:26.889Z,946.48
2018-12-07T08:16:26.871Z,946.40
2018-12-07T08:17:26.893Z,946.51
2018-12-07T08:18:26.971Z,946.47
2018-12-07T08:19:27.117Z,946.47
2018-12-07T08:20:26.835Z,946.45
2018-12-07T08:21:26.806Z,946.41
2018-12-07T08:22:26.807Z,946.36
2018-12-07T08:23:26.799Z,946.36
2018-12-07T08:24:27.596Z,946.38
2018-12-07T08:25:26.806Z,946.33
2018-12-07T08:26:26.760Z,946.37
2018-12-07T08:27:27.808Z,946.31
2018-12-07T08:28:26.743Z,946.30
2018-12-07T08:29:26.756Z,946.28
2018-12-07T08:30:27.590Z,946.29
2018-12-07T08:31:26.715Z,946.27
2018-12-07T08:32:26.768Z,946.25
2018-12-07T08:33:26.680Z,946.18
2018-12-07T08:34:26.675Z,946.23
2018-12-07T08:35:26.734Z,946.22
2018-12-07T08:36:27.597Z,946.24
2018-12-07T08:37:37.598Z,946.20
2018-12-07T08:41:24.869Z,946.17
2018-12-07T08:42:24.720Z,946.11
2018-12-07T08:43:24.682Z,946.13
2018-12-07T08:44:39.183Z,946.12
2018-12-07T08:45:35.614Z,946.15
2018-12-07T08:46:24.676Z,946.07
2018-12-07T08:47:24.619Z,946.06
2018-12-07T08:48:24.662Z,946.06
2018-12-07T08:49:24.594Z,946.06
2018-12-07T08:50:24.581Z,946.06
2018-12-07T08:51:35.402Z,946.06
2018-12-07T08:52:24.619Z,946.09
2018-12-07T08:53:24.560Z,946.14
2018-12-07T08:54:24.539Z,946.08
2018-12-07T08:55:24.570Z,946.09
2018-12-07T08:56:36.194Z,946.04
2018-12-07T08:57:25.208Z,945.97
2018-12-07T08:58:35.248Z,946.01
2018-12-07T08:59:35.371Z,946.05
2018-12-07T09:00:36.835Z,946.09
2018-12-07T09:01:24.510Z,946.00
2018-12-07T09:02:24.459Z,946.11
2018-12-07T09:03:24.484Z,946.01
2018-12-07T09:04:41.284Z,945.98
2018-12-07T09:05:24.422Z,945.98
2018-12-07T09:06:24.405Z,945.94
2018-12-07T09:07:36.044Z,946.06
2018-12-07T09:08:34.867Z,946.02
2018-12-07T09:09:35.719Z,945.98
2018-12-07T09:11:36.545Z,945.93
2018-12-07T09:16:37.409Z,945.85
2018-12-07T09:18:51.201Z,945.77
2018-12-07T09:19:51.219Z,945.79
2018-12-07T09:20:54.169Z,945.74
2018-12-07T09:22:02.769Z,945.76
2018-12-07T09:22:51.142Z,945.69
2018-12-07T09:23:52.137Z,945.65
2018-12-07T09:25:00.711Z,945.70
2018-12-07T09:25:59.776Z,945.71
2018-12-07T09:27:01.867Z,945.65
2018-12-07T09:27:51.121Z,945.67
2018-12-07T09:29:02.235Z,945.78
2018-12-07T09:30:01.572Z,945.62
2018-12-07T09:30:59.760Z,945.66
2018-12-07T09:31:59.757Z,945.63
2018-12-07T09:34:10.453Z,945.63
2018-12-07T09:37:24.878Z,945.51
2018-12-07T09:38:34.853Z,945.51
2018-12-07T09:39:36.502Z,945.55
2018-12-07T09:40:24.813Z,945.46
2018-12-07T09:41:34.387Z,945.42
2018-12-07T09:42:35.536Z,945.43
2018-12-07T09:43:35.480Z,945.43
2018-12-07T09:45:39.443Z,945.38
2018-12-07T09:49:04.479Z,945.44
2018-12-07T09:50:02.935Z,945.48
2018-12-07T09:51:03.903Z,945.39
2018-12-07T09:52:13.363Z,945.41
2018-12-07T09:53:12.650Z,945.39
2018-12-07T09:55:14.270Z,945.33
2018-12-07T09:57:25.481Z,945.29
2018-12-07T09:58:25.279Z,945.32
2018-12-07T09:59:25.260Z,945.26
2018-12-07T10:01:37.384Z,945.07
2018-12-07T10:03:50.908Z,945.31
2018-12-07T10:05:00.546Z,945.26
2018-12-07T10:05:50.681Z,945.17
2018-12-07T10:06:51.649Z,945.13
2018-12-07T10:08:02.639Z,945.13
2018-12-07T10:09:03.612Z,945.10
2018-12-07T10:09:50.633Z,945.02
2018-12-07T10:11:00.585Z,944.98
2018-12-07T10:12:02.967Z,944.98
2018-12-07T10:12:50.601Z,944.91
2018-12-07T10:14:01.127Z,944.93
2018-12-07T10:14:50.617Z,944.86
2018-12-07T10:16:01.246Z,944.91
2018-12-07T10:16:50.545Z,944.88
2018-12-07T10:18:24.253Z,944.82
2018-12-07T10:18:50.502Z,944.80
2018-12-07T10:19:50.487Z,944.83
2018-12-07T10:20:50.591Z,944.80
2018-12-07T10:22:01.399Z,944.82
2018-12-07T10:22:50.442Z,944.77
2018-12-07T10:23:50.505Z,944.74
2018-12-07T10:24:50.544Z,944.75
2018-12-07T10:25:50.454Z,944.82
2018-12-07T10:26:50.371Z,944.74
2018-12-07T10:27:50.370Z,944.74
2018-12-07T10:28:51.181Z,944.78
2018-12-07T10:29:51.077Z,944.75
2018-12-07T10:30:50.355Z,944.77
2018-12-07T10:31:50.337Z,944.74
2018-12-07T10:32:50.304Z,944.72
2018-12-07T10:33:51.093Z,944.68
2018-12-07T10:34:50.316Z,944.61
2018-12-07T10:35:50.275Z,944.57
2018-12-07T10:36:50.278Z,944.55
2018-12-07T10:37:50.288Z,944.52
2018-12-07T10:38:50.239Z,944.49
2018-12-07T10:40:01.879Z,944.46
2018-12-07T10:40:59.726Z,944.43
2018-12-07T10:43:11.288Z,944.41
2018-12-07T10:45:59.862Z,944.36
2018-12-07T10:48:13.428Z,944.38
2018-12-07T10:49:12.939Z,944.37
2018-12-07T10:50:13.942Z,944.32
2018-12-07T10:51:12.921Z,944.25
2018-12-07T10:52:13.631Z,944.23
2018-12-07T10:53:12.969Z,944.19
2018-12-07T10:54:12.945Z,944.17
2018-12-07T10:55:12.854Z,944.16
2018-12-07T10:56:25.348Z,944.12
2018-12-07T10:58:25.332Z,944.11
2018-12-07T10:59:32.836Z,944.12
2018-12-07T11:01:36.299Z,944.09
2018-12-07T11:02:38.135Z,944.03
2018-12-07T11:03:37.002Z,943.96
2018-12-07T11:04:36.085Z,943.98
2018-12-07T11:05:36.077Z,944.00
2018-12-07T11:06:36.056Z,943.95
2018-12-07T11:07:36.074Z,944.00
2018-12-07T11:08:46.560Z,943.95
2018-12-07T11:09:44.754Z,943.90
2018-12-07T11:10:36.033Z,943.87
2018-12-07T11:11:36.052Z,943.89
2018-12-07T11:12:36.059Z,943.86
2018-12-07T11:13:36.022Z,943.92
2018-12-07T11:14:47.688Z,943.87
2018-12-07T11:15:46.749Z,943.85
2018-12-07T11:16:36.020Z,943.80
2018-12-07T11:17:35.988Z,943.79
2018-12-07T11:18:38.862Z,943.76
2018-12-07T11:19:37.661Z,943.77
2018-12-07T11:20:35.965Z,943.65
2018-12-07T11:21:35.871Z,943.69
2018-12-07T11:22:35.863Z,943.69
2018-12-07T11:23:35.881Z,943.70
2018-12-07T11:24:35.834Z,943.65
2018-12-07T11:25:35.826Z,943.68
2018-12-07T11:26:38.597Z,943.61
2018-12-07T11:27:35.801Z,943.57
2018-12-07T11:28:36.799Z,943.49
2018-12-07T11:29:35.781Z,943.50
2018-12-07T11:30:35.794Z,943.47
2018-12-07T11:31:35.773Z,943.45
2018-12-07T11:32:35.752Z,943.39
2018-12-07T11:33:35.741Z,943.40
2018-12-07T11:34:35.729Z,943.53
2018-12-07T11:35:35.778Z,943.46
2018-12-07T11:36:35.720Z,943.36
2018-12-07T11:37:35.697Z,943.38
2018-12-07T11:38:35.704Z,943.30
2018-12-07T11:39:36.675Z,943.30
2018-12-07T11:40:35.705Z,943.30
2018-12-07T11:41:35.657Z,943.21
2018-12-07T11:42:36.602Z,943.19
2018-12-07T11:43:35.633Z,943.22
2018-12-07T11:44:36.640Z,943.19
2018-12-07T11:45:35.604Z,943.28
2018-12-07T11:46:35.603Z,943.21
2018-12-07T11:47:35.634Z,943.15
2018-12-07T11:48:35.559Z,943.15
2018-12-07T11:49:35.550Z,943.14
2018-12-07T11:50:35.541Z,943.15
2018-12-07T11:51:35.558Z,943.22
2018-12-07T11:52:35.516Z,943.25
2018-12-07T11:53:35.528Z,943.15
2018-12-07T11:54:35.492Z,943.18
2018-12-07T11:55:35.511Z,943.19
2018-12-07T11:56:35.569Z,943.18
2018-12-07T11:57:35.480Z,943.12
2018-12-07T11:58:35.441Z,943.09
2018-12-07T11:59:35.474Z,943.07
2018-12-07T12:00:48.179Z,943.08
2018-12-07T12:01:35.496Z,943.03
2018-12-07T12:03:52.953Z,942.94
2018-12-07T12:05:12.531Z,942.98
2018-12-07T12:05:53.624Z,942.96
2018-12-07T12:06:52.639Z,942.93
2018-12-07T12:07:52.663Z,942.93
2018-12-07T12:08:53.424Z,942.93
2018-12-07T12:10:02.222Z,942.95
2018-12-07T12:11:03.011Z,942.94
2018-12-07T12:12:02.964Z,942.91
2018-12-07T12:12:52.519Z,942.89
2018-12-07T12:14:07.130Z,942.82
2018-12-07T12:15:03.020Z,942.78
2018-12-07T12:16:03.826Z,942.77
2018-12-07T12:16:54.105Z,942.76
2018-12-07T12:17:52.435Z,942.74
2018-12-07T12:18:52.498Z,942.77
2018-12-07T12:19:52.447Z,942.79
2018-12-07T12:21:08.856Z,942.78
2018-12-07T12:21:52.642Z,942.73
2018-12-07T12:24:09.767Z,942.74
2018-12-07T12:25:10.310Z,942.69
2018-12-07T12:26:09.580Z,942.69
2018-12-07T12:27:09.533Z,942.62
2018-12-07T12:28:09.539Z,942.66
2018-12-07T12:29:09.573Z,942.57
2018-12-07T12:30:09.536Z,942.62
2018-12-07T12:33:37.090Z,942.62
2018-12-07T12:34:36.218Z,942.53
2018-12-07T12:35:37.212Z,942.55
2018-12-07T12:36:36.745Z,942.55
2018-12-07T12:37:45.711Z,942.55
2018-12-07T12:38:36.177Z,942.54
2018-12-07T12:39:36.153Z,942.54
2018-12-07T12:40:36.084Z,942.60
2018-12-07T12:41:37.081Z,942.59
2018-12-07T12:42:36.565Z,942.57
2018-12-07T12:43:36.028Z,942.52
2018-12-07T12:44:36.008Z,942.55
2018-12-07T12:45:36.002Z,942.57
2018-12-07T12:46:36.061Z,942.57
2018-12-07T12:47:36.040Z,942.50
2018-12-07T12:48:37.076Z,942.48
2018-12-07T12:49:36.535Z,942.45
2018-12-07T12:50:36.939Z,942.44
2018-12-07T12:51:35.949Z,942.42
2018-12-07T12:52:35.922Z,942.42
2018-12-07T12:53:35.931Z,942.42
2018-12-07T12:54:48.311Z,942.40
2018-12-07T12:55:49.950Z,942.46
2018-12-07T12:56:35.897Z,942.40
2018-12-07T12:57:50.802Z,942.39
2018-12-07T12:58:36.017Z,942.47
2018-12-07T12:59:35.882Z,942.43
2018-12-07T13:00:49.554Z,942.50
2018-12-07T13:01:35.872Z,942.40
2018-12-07T13:02:45.702Z,942.38
2018-12-07T13:03:46.683Z,942.28
2018-12-07T13:04:46.892Z,942.33
2018-12-07T13:05:46.805Z,942.28
2018-12-07T13:06:35.872Z,942.26
2018-12-07T13:07:35.818Z,942.19
2018-12-07T13:08:36.896Z,942.23
2018-12-07T13:09:50.651Z,942.12
2018-12-07T13:10:35.905Z,942.09
2018-12-07T13:11:47.417Z,942.08
2018-12-07T13:12:47.714Z,942.05
2018-12-07T13:13:35.703Z,942.08
2018-12-07T13:14:45.980Z,942.04
2018-12-07T13:15:46.446Z,942.03
2018-12-07T13:16:45.662Z,942.07
2018-12-07T13:17:45.536Z,942.02
2018-12-07T13:18:37.618Z,942.08
2018-12-07T13:19:45.769Z,942.05
2018-12-07T13:21:55.885Z,942.03
2018-12-07T13:24:24.806Z,942.00
2018-12-07T13:25:33.584Z,942.03
2018-12-07T13:26:38.640Z,942.05
2018-12-07T13:28:35.033Z,941.96
2018-12-07T13:29:34.934Z,942.01
2018-12-07T13:30:34.810Z,941.95
2018-12-07T13:31:34.827Z,941.91
2018-12-07T13:32:34.803Z,941.97
2018-12-07T13:33:34.770Z,941.83
2018-12-07T13:34:34.800Z,941.83
2018-12-07T13:35:34.769Z,941.83
2018-12-07T13:36:34.794Z,941.69
2018-12-07T13:37:34.723Z,941.74
2018-12-07T13:38:34.777Z,941.74
2018-12-07T13:39:34.769Z,941.64
2018-12-07T13:40:34.762Z,941.65
2018-12-07T13:41:34.773Z,941.66
2018-12-07T13:42:34.883Z,941.77
2018-12-07T13:43:34.745Z,941.75
2018-12-07T13:44:34.767Z,941.81
2018-12-07T13:45:34.672Z,941.65
2018-12-07T13:46:34.804Z,941.64
2018-12-07T13:47:34.743Z,941.59
2018-12-07T13:48:34.712Z,941.58
2018-12-07T13:49:34.806Z,941.54
2018-12-07T13:50:34.583Z,941.62
2018-12-07T13:51:35.663Z,941.48
2018-12-07T13:52:34.606Z,941.44
2018-12-07T13:53:34.670Z,941.43
2018-12-07T13:54:34.542Z,941.49
2018-12-07T13:55:34.537Z,941.37
2018-12-07T13:56:34.620Z,941.31
2018-12-07T13:57:34.487Z,941.26
2018-12-07T13:58:34.579Z,941.23
2018-12-07T13:59:35.939Z,941.17
2018-12-07T14:00:34.545Z,941.20
2018-12-07T14:01:34.596Z,941.28
2018-12-07T14:02:35.892Z,941.21
2018-12-07T14:03:34.415Z,941.16
2018-12-07T14:04:34.531Z,941.12
2018-12-07T14:05:34.470Z,941.15
2018-12-07T14:06:34.457Z,941.15
2018-12-07T14:07:34.556Z,941.03
2018-12-07T14:08:34.404Z,941.06
2018-12-07T14:09:34.584Z,941.06
2018-12-07T14:10:34.398Z,941.06
2018-12-07T14:11:34.344Z,941.02
2018-12-07T14:12:34.514Z,940.97
2018-12-07T14:13:34.390Z,940.95
2018-12-07T14:14:34.309Z,940.90
2018-12-07T14:15:34.355Z,940.93
2018-12-07T14:16:34.460Z,940.93
2018-12-07T14:17:34.258Z,940.89
2018-12-07T14:18:34.433Z,940.91
2018-12-07T14:19:34.255Z,940.90
2018-12-07T14:20:34.371Z,940.91
2018-12-07T14:21:34.241Z,940.86
2018-12-07T14:22:34.443Z,940.91
2018-12-07T14:23:35.844Z,940.86
2018-12-07T14:24:34.205Z,940.82
2018-12-07T14:25:34.186Z,940.85
2018-12-07T14:26:34.255Z,940.83
2018-12-07T14:27:34.164Z,940.88
2018-12-07T14:28:34.356Z,940.82
2018-12-07T14:29:34.258Z,940.82
2018-12-07T14:30:34.151Z,940.85
2018-12-07T14:31:34.167Z,940.78
2018-12-07T14:32:34.224Z,940.76
2018-12-07T14:33:34.187Z,940.70
2018-12-07T14:34:34.100Z,940.65
2018-12-07T14:35:34.301Z,940.64
2018-12-07T14:36:34.063Z,940.62
2018-12-07T14:37:34.071Z,940.61
2018-12-07T14:38:34.062Z,940.57
2018-12-07T14:39:34.204Z,940.53
2018-12-07T14:40:34.643Z,940.53
2018-12-07T14:41:45.849Z,940.51
2018-12-07T14:42:34.178Z,940.49
2018-12-07T14:43:45.879Z,940.43
2018-12-07T14:44:34.109Z,940.39
2018-12-07T14:45:44.475Z,940.35
2018-12-07T14:46:34.191Z,940.37
2018-12-07T14:47:33.931Z,940.31
2018-12-07T14:48:34.185Z,940.33
2018-12-07T14:49:34.686Z,940.30
2018-12-07T14:50:35.163Z,940.29
2018-12-07T14:51:34.695Z,940.25
2018-12-07T14:52:33.885Z,940.27
2018-12-07T14:53:34.068Z,940.26
2018-12-07T14:54:33.971Z,940.27
2018-12-07T14:55:33.958Z,940.20
2018-12-07T14:56:34.738Z,940.21
2018-12-07T14:57:34.036Z,940.19
2018-12-07T14:58:33.802Z,940.20
2018-12-07T14:59:33.845Z,940.18
2018-12-07T15:00:33.855Z,940.16
2018-12-07T15:01:33.979Z,940.16
2018-12-07T15:02:33.747Z,940.13
2018-12-07T15:03:33.738Z,940.12
2018-12-07T15:04:33.750Z,940.08
2018-12-07T15:05:34.029Z,940.11
2018-12-07T15:06:45.363Z,940.09
2018-12-07T15:07:33.818Z,940.08
2018-12-07T15:08:33.695Z,940.04
2018-12-07T15:09:35.818Z,940.06
2018-12-07T15:10:33.830Z,940.02
2018-12-07T15:11:33.879Z,939.99
2018-12-07T15:12:33.928Z,939.93
2018-12-07T15:13:33.698Z,939.93
2018-12-07T15:14:33.723Z,939.99
2018-12-07T15:15:33.724Z,939.93
2018-12-07T15:16:33.824Z,939.89
2018-12-07T15:17:44.149Z,939.88
2018-12-07T15:18:45.539Z,939.88
2018-12-07T15:19:43.859Z,939.89
2018-12-07T15:20:33.638Z,939.87
2018-12-07T15:21:33.642Z,939.89
2018-12-07T15:22:33.597Z,939.85
2018-12-07T15:23:33.628Z,939.80
2018-12-07T15:24:33.601Z,939.78
2018-12-07T15:25:33.509Z,939.82
2018-12-07T15:26:33.535Z,939.79
2018-12-07T15:27:34.563Z,939.74
2018-12-07T15:28:33.622Z,939.82
2018-12-07T15:29:34.311Z,939.78
2018-12-07T15:30:33.436Z,939.70
2018-12-07T15:31:42.073Z,939.70
2018-12-07T15:32:33.664Z,939.72
2018-12-07T15:33:33.510Z,939.71
2018-12-07T15:34:33.455Z,939.78
2018-12-07T15:35:33.531Z,939.65
2018-12-07T15:36:33.585Z,939.61
2018-12-07T15:37:33.467Z,939.60
2018-12-07T15:38:33.475Z,939.59
2018-12-07T15:39:33.483Z,939.56
2018-12-07T15:40:33.512Z,939.56
2018-12-07T15:41:33.409Z,939.54
2018-12-07T15:42:33.378Z,939.48
2018-12-07T15:43:33.375Z,939.52
2018-12-07T15:44:33.424Z,939.53
2018-12-07T15:45:33.357Z,939.46
2018-12-07T15:46:33.295Z,939.39
2018-12-07T15:47:33.333Z,939.42
2018-12-07T15:48:33.262Z,939.38
2018-12-07T15:49:33.683Z,939.35
2018-12-07T15:50:33.263Z,939.30
2018-12-07T15:51:33.229Z,939.24
2018-12-07T15:52:33.261Z,939.21
2018-12-07T15:53:33.254Z,939.29
2018-12-07T15:54:33.242Z,939.31
2018-12-07T15:55:33.441Z,939.20
2018-12-07T15:56:33.446Z,939.21
2018-12-07T15:57:45.042Z,939.16
2018-12-07T15:58:43.097Z,939.15
2018-12-07T15:59:34.707Z,939.12
2018-12-07T16:00:33.269Z,939.13
2018-12-07T16:01:44.229Z,939.03
2018-12-07T16:02:33.315Z,939.02
2018-12-07T16:03:43.797Z,939.08
2018-12-07T16:04:33.271Z,939.06
2018-12-07T16:05:33.139Z,939.14
2018-12-07T16:06:33.434Z,939.04
2018-12-07T16:07:34.244Z,939.10
2018-12-07T16:08:33.307Z,938.98
2018-12-07T16:09:33.190Z,939.11
2018-12-07T16:10:33.182Z,939.03
2018-12-07T16:11:33.067Z,938.95
2018-12-07T16:12:33.027Z,938.99
2018-12-07T16:13:32.997Z,938.95
2018-12-07T16:14:33.031Z,939.01
2018-12-07T16:15:32.962Z,939.02
2018-12-07T16:16:33.080Z,939.03
2018-12-07T16:17:34.032Z,938.95
2018-12-07T16:19:01.419Z,938.81
2018-12-07T16:19:33.053Z,938.79
2018-12-07T16:20:32.866Z,938.80
2018-12-07T16:21:32.949Z,938.74
2018-12-07T16:22:33.087Z,938.73
2018-12-07T16:23:32.830Z,938.64
2018-12-07T16:24:32.971Z,938.63
2018-12-07T16:25:42.773Z,938.60
2018-12-07T16:26:32.959Z,938.66
2018-12-07T16:27:32.907Z,938.61
2018-12-07T16:28:32.852Z,938.58
2018-12-07T16:29:32.858Z,938.53
2018-12-07T16:30:32.980Z,938.50
2018-12-07T16:31:42.777Z,938.45
2018-12-07T16:32:43.723Z,938.51
2018-12-07T16:33:47.939Z,938.48
2018-12-07T16:34:32.821Z,938.43
2018-12-07T16:35:42.828Z,938.41
2018-12-07T16:36:32.841Z,938.35
2018-12-07T16:37:32.766Z,938.36
2018-12-07T16:38:32.905Z,938.30
2018-12-07T16:39:32.823Z,938.39
2018-12-07T16:40:32.680Z,938.32
2018-12-07T16:41:41.301Z,938.27
2018-12-07T16:42:47.807Z,938.25
2018-12-07T16:43:43.937Z,938.23
2018-12-07T16:44:42.295Z,938.23
2018-12-07T16:45:41.305Z,938.21
2018-12-07T16:46:32.875Z,938.21
2018-12-07T16:47:32.591Z,938.14
2018-12-07T16:48:53.651Z,938.12
2018-12-07T16:49:32.759Z,938.01
2018-12-07T16:50:32.556Z,938.01
2018-12-07T16:51:42.224Z,938.01
2018-12-07T16:52:32.645Z,937.90
2018-12-07T16:53:44.056Z,937.87
2018-12-07T16:54:32.574Z,937.88
2018-12-07T16:55:32.624Z,937.86
2018-12-07T16:56:32.502Z,937.90
2018-12-07T16:57:32.664Z,937.93
2018-12-07T16:58:32.716Z,937.88
2018-12-07T16:59:32.579Z,937.94
2018-12-07T17:00:32.404Z,937.94
2018-12-07T17:01:32.616Z,937.98
2018-12-07T17:02:32.585Z,938.00
2018-12-07T17:03:32.380Z,938.02
2018-12-07T17:04:32.417Z,937.99
2018-12-07T17:05:32.378Z,938.01
2018-12-07T17:06:32.407Z,938.00
2018-12-07T17:07:32.462Z,938.13
2018-12-07T17:08:32.458Z,937.96
2018-12-07T17:09:32.321Z,937.97
2018-12-07T17:10:32.498Z,937.94
2018-12-07T17:11:32.308Z,937.95
2018-12-07T17:12:32.591Z,937.85
2018-12-07T17:13:32.385Z,937.94
2018-12-07T17:14:32.376Z,937.89
2018-12-07T17:15:32.378Z,937.82
2018-12-07T17:16:32.448Z,937.93
2018-12-07T17:17:32.331Z,937.81
2018-12-07T17:18:32.336Z,937.82
2018-12-07T17:19:32.266Z,937.79
2018-12-07T17:20:32.176Z,937.78
2018-12-07T17:21:32.269Z,937.78
2018-12-07T17:22:32.239Z,937.80
2018-12-07T17:23:32.241Z,937.82
2018-12-07T17:24:32.199Z,937.80
2018-12-07T17:25:32.831Z,937.83
2018-12-07T17:26:32.418Z,937.89
2018-12-07T17:27:32.281Z,937.87
2018-12-07T17:28:32.108Z,937.89
2018-12-07T17:29:32.181Z,937.91
2018-12-07T17:30:44.804Z,937.86
2018-12-07T17:31:33.017Z,937.86
2018-12-07T17:32:32.195Z,937.77
2018-12-07T17:33:32.194Z,937.74
2018-12-07T17:34:33.155Z,937.69
2018-12-07T17:35:32.302Z,937.70
2018-12-07T17:36:32.116Z,937.72
2018-12-07T17:37:32.433Z,937.73
2018-12-07T17:38:33.065Z,937.73
2018-12-07T17:39:31.977Z,937.70
2018-12-07T17:40:31.978Z,937.67
2018-12-07T17:41:31.942Z,937.67
2018-12-07T17:42:32.112Z,937.74
2018-12-07T17:43:32.031Z,937.72
2018-12-07T17:44:32.935Z,937.68
2018-12-07T17:45:33.038Z,937.67
2018-12-07T17:46:32.151Z,937.58
2018-12-07T17:47:32.132Z,937.53
2018-12-07T17:48:33.161Z,937.56
2018-12-07T17:49:31.924Z,937.61
2018-12-07T17:50:31.927Z,937.63
2018-12-07T17:51:32.058Z,937.60
2018-12-07T17:52:31.848Z,937.58
2018-12-07T17:53:32.064Z,937.56
2018-12-07T17:54:31.822Z,937.50
2018-12-07T17:55:32.042Z,937.43
2018-12-07T17:56:31.853Z,937.46
2018-12-07T17:57:31.751Z,937.42
2018-12-07T17:58:31.951Z,937.34
2018-12-07T17:59:31.739Z,937.30
2018-12-07T18:00:31.735Z,937.24
2018-12-07T18:01:31.734Z,937.20
2018-12-07T18:02:31.703Z,937.25
2018-12-07T18:03:31.692Z,937.14
2018-12-07T18:05:40.762Z,937.33
2018-12-07T18:06:41.731Z,937.33
2018-12-07T18:07:40.778Z,937.35
2018-12-07T18:08:40.595Z,937.28
2018-12-07T18:09:40.704Z,937.40
2018-12-07T18:10:40.713Z,937.36
2018-12-07T18:11:41.555Z,937.37
2018-12-07T18:12:40.579Z,937.41
2018-12-07T18:13:49.342Z,937.38
2018-12-07T18:14:40.513Z,937.45
2018-12-07T18:15:40.653Z,937.29
2018-12-07T18:16:41.498Z,937.41
2018-12-07T18:17:40.509Z,937.47
2018-12-07T18:18:40.400Z,937.43
2018-12-07T18:19:40.462Z,937.49
2018-12-07T18:20:40.352Z,937.46
2018-12-07T18:21:40.417Z,937.44
2018-12-07T18:22:40.330Z,937.52
2018-12-07T18:23:40.347Z,937.37
2018-12-07T18:24:40.878Z,937.42
2018-12-07T18:25:40.566Z,937.37
2018-12-07T18:26:40.338Z,937.34
2018-12-07T18:27:40.552Z,937.39
2018-12-07T18:28:40.408Z,937.29
2018-12-07T18:29:40.503Z,937.30
2018-12-07T18:30:41.233Z,937.21
2018-12-07T18:31:40.262Z,937.13
2018-12-07T18:32:40.456Z,937.24
2018-12-07T18:33:40.273Z,937.20
2018-12-07T18:34:40.421Z,937.30
2018-12-07T18:35:41.306Z,937.43
2018-12-07T18:36:40.399Z,937.23
2018-12-07T18:37:40.168Z,937.22
2018-12-07T18:38:40.526Z,937.19
2018-12-07T18:39:40.244Z,937.18
2018-12-07T18:40:40.924Z,937.11
2018-12-07T18:41:40.230Z,937.15
2018-12-07T18:42:40.384Z,937.10
2018-12-07T18:43:40.201Z,937.11
2018-12-07T18:44:40.129Z,937.15
2018-12-07T18:45:40.222Z,937.08
2018-12-07T18:46:40.232Z,937.10
2018-12-07T18:47:40.309Z,937.23
2018-12-07T18:48:40.052Z,937.22
2018-12-07T18:49:40.027Z,937.12
2018-12-07T18:50:40.275Z,937.30
2018-12-07T18:51:40.027Z,937.21
2018-12-07T18:52:40.183Z,937.10
2018-12-07T18:53:40.041Z,937.15
2018-12-07T18:54:40.025Z,937.15
2018-12-07T18:55:40.096Z,937.10
2018-12-07T18:56:40.100Z,937.08
2018-12-07T18:57:40.200Z,937.03
2018-12-07T18:58:39.954Z,936.92
2018-12-07T18:59:40.080Z,936.75
2018-12-07T19:00:39.922Z,936.86
2018-12-07T19:01:40.006Z,936.85
2018-12-07T19:02:39.931Z,936.89
2018-12-07T19:03:39.918Z,936.80
2018-12-07T19:04:40.182Z,936.82
2018-12-07T19:05:40.150Z,936.83
2018-12-07T19:06:39.924Z,936.86
2018-12-07T19:07:39.831Z,936.81
2018-12-07T19:08:39.864Z,936.81
2018-12-07T19:09:39.972Z,936.77
2018-12-07T19:10:39.906Z,936.64
2018-12-07T19:11:40.041Z,936.66
2018-12-07T19:12:40.373Z,936.65
2018-12-07T19:13:39.964Z,936.54
2018-12-07T19:14:39.793Z,936.56
2018-12-07T19:15:39.734Z,936.65
2018-12-07T19:16:39.933Z,936.48
2018-12-07T19:17:39.792Z,936.59
2018-12-07T19:18:39.802Z,936.63
2018-12-07T19:19:39.853Z,936.62
2018-12-07T19:20:39.861Z,936.55
2018-12-07T19:21:40.526Z,936.59
2018-12-07T19:22:39.934Z,936.44
2018-12-07T19:23:39.738Z,936.54
2018-12-07T19:24:39.704Z,936.60
2018-12-07T19:25:39.943Z,936.54
2018-12-07T19:26:39.814Z,936.47
2018-12-07T19:27:39.625Z,936.50